createdAt,value
2019-03-19T00:02:05.253Z,20.60
2019-03-19T00:04:38.083Z,20.60
2019-03-19T00:07:10.849Z,20.70
2019-03-19T00:09:43.822Z,20.70
2019-03-19T00:12:16.581Z,20.70
2019-03-19T00:14:49.649Z,20.70
2019-03-19T00:17:22.539Z,20.80
2019-03-19T00:19:55.963Z,20.80
2019-03-19T00:22:28.950Z,20.90
2019-03-19T00:25:02.940Z,20.90
2019-03-19T00:27:35.532Z,20.80
2019-03-19T00:30:12.545Z,20.80
2019-03-19T00:32:45.601Z,20.80
2019-03-19T00:35:18.576Z,20.80
2019-03-19T00:37:51.224Z,20.70
2019-03-19T00:40:24.173Z,20.70
2019-03-19T00:42:57.723Z,20.70
2019-03-19T00:45:30.414Z,20.70
2019-03-19T00:48:03.333Z,20.70
2019-03-19T00:50:36.288Z,20.80
2019-03-19T00:53:09.071Z,20.80
2019-03-19T00:55:41.865Z,20.90
2019-03-19T00:58:14.970Z,20.90
2019-03-19T01:00:47.660Z,21.00
2019-03-19T01:03:21.273Z,21.00
2019-03-19T01:05:54.015Z,20.90
2019-03-19T01:08:26.663Z,20.90
2019-03-19T01:10:59.668Z,20.90
2019-03-19T01:13:32.335Z,20.80
2019-03-19T01:16:06.034Z,20.80
2019-03-19T01:18:38.734Z,20.80
2019-03-19T01:21:11.718Z,20.80
2019-03-19T01:23:44.479Z,20.80
2019-03-19T01:26:17.719Z,20.90
2019-03-19T01:28:51.911Z,20.90
2019-03-19T01:31:25.266Z,20.90
2019-03-19T01:33:58.528Z,21.00
2019-03-19T01:36:31.849Z,21.00
2019-03-19T01:39:05.417Z,21.00
2019-03-19T01:41:38.283Z,21.00
2019-03-19T01:44:11.262Z,21.00
2019-03-19T01:46:44.080Z,20.90
2019-03-19T01:49:17.911Z,20.80
2019-03-19T01:51:50.658Z,20.80
2019-03-19T01:54:23.654Z,20.80
2019-03-19T01:56:56.718Z,20.80
2019-03-19T01:59:29.603Z,20.80
2019-03-19T02:02:03.219Z,20.80
2019-03-19T02:04:35.785Z,20.80
2019-03-19T02:07:08.572Z,20.90
2019-03-19T02:09:41.765Z,20.80
2019-03-19T02:12:14.792Z,20.80
2019-03-19T02:14:47.595Z,20.90
2019-03-19T02:17:20.186Z,20.90
2019-03-19T02:19:53.057Z,20.90
2019-03-19T02:22:28.511Z,20.90
2019-03-19T02:25:01.512Z,20.90
2019-03-19T02:27:34.512Z,20.90
2019-03-19T02:30:09.917Z,21.00
2019-03-19T02:32:42.912Z,21.00
2019-03-19T02:35:15.961Z,21.00
2019-03-19T02:37:48.699Z,21.00
2019-03-19T02:40:21.756Z,21.00
2019-03-19T02:42:54.476Z,21.10
2019-03-19T02:45:28.085Z,21.10
2019-03-19T02:48:00.891Z,21.20
2019-03-19T02:50:34.696Z,21.30
2019-03-19T02:53:08.190Z,21.40
2019-03-19T02:55:41.043Z,21.40
2019-03-19T02:58:14.161Z,21.50
2019-03-19T03:00:49.873Z,21.60
2019-03-19T03:03:23.880Z,21.70
2019-03-19T03:05:56.971Z,21.60
2019-03-19T03:08:31.028Z,21.60
2019-03-19T03:11:03.718Z,21.50
2019-03-19T03:13:36.656Z,21.60
2019-03-19T03:16:09.476Z,21.60
2019-03-19T03:18:42.460Z,21.60
2019-03-19T03:21:15.232Z,21.60
2019-03-19T03:23:48.220Z,21.60
2019-03-19T03:26:20.912Z,21.50
2019-03-19T03:28:53.858Z,21.60
2019-03-19T03:31:26.756Z,21.60
2019-03-19T03:34:01.468Z,21.60
2019-03-19T03:36:34.571Z,21.60
2019-03-19T03:39:10.158Z,21.60
2019-03-19T03:41:43.426Z,21.60
2019-03-19T03:44:17.310Z,21.60
2019-03-19T03:46:50.090Z,21.70
2019-03-19T03:49:23.178Z,21.70
2019-03-19T03:51:55.967Z,21.70
2019-03-19T03:54:28.874Z,21.70
2019-03-19T03:57:02.877Z,21.70
2019-03-19T03:59:36.358Z,21.60
2019-03-19T04:02:09.180Z,21.60
2019-03-19T04:04:42.119Z,21.60
2019-03-19T04:07:14.932Z,21.60
2019-03-19T04:09:47.931Z,21.60
2019-03-19T04:12:20.692Z,21.50
2019-03-19T04:14:53.475Z,21.50
2019-03-19T04:17:26.677Z,21.50
2019-03-19T04:19:59.451Z,21.50
2019-03-19T04:22:33.352Z,21.50
2019-03-19T04:25:06.227Z,21.40
2019-03-19T04:27:40.616Z,21.50
2019-03-19T04:30:15.969Z,21.50
2019-03-19T04:32:49.067Z,21.40
2019-03-19T04:35:23.064Z,21.40
2019-03-19T04:37:56.127Z,21.40
2019-03-19T04:40:28.730Z,21.50
2019-03-19T04:43:01.672Z,21.50
2019-03-19T04:45:34.407Z,21.40
2019-03-19T04:48:07.480Z,21.50
2019-03-19T04:50:39.955Z,21.50
2019-03-19T04:53:12.991Z,21.50
2019-03-19T04:55:45.665Z,21.50
2019-03-19T04:58:18.756Z,21.50
2019-03-19T05:00:51.516Z,21.50
2019-03-19T05:03:24.904Z,21.50
2019-03-19T05:05:59.539Z,21.50
2019-03-19T05:08:33.332Z,21.50
2019-03-19T05:11:07.190Z,21.40
2019-03-19T05:13:39.940Z,21.40
2019-03-19T05:16:12.938Z,21.30
2019-03-19T05:18:46.318Z,21.30
2019-03-19T05:21:20.256Z,21.20
2019-03-19T05:23:53.718Z,21.20
2019-03-19T05:26:26.717Z,21.20
2019-03-19T05:28:59.580Z,21.10
2019-03-19T05:31:32.402Z,21.10
2019-03-19T05:34:04.973Z,21.00
2019-03-19T05:36:38.368Z,21.00
2019-03-19T05:39:11.696Z,21.00
2019-03-19T05:41:44.798Z,20.90
2019-03-19T05:44:17.769Z,20.90
2019-03-19T05:46:50.870Z,20.80
2019-03-19T05:49:23.357Z,20.80
2019-03-19T05:51:57.298Z,20.70
2019-03-19T05:54:29.989Z,20.60
2019-03-19T05:57:04.039Z,20.60
2019-03-19T05:59:36.764Z,20.60
2019-03-19T06:02:09.920Z,20.50
2019-03-19T06:04:42.419Z,20.50
2019-03-19T06:07:15.079Z,20.40
2019-03-19T06:09:47.939Z,20.40
2019-03-19T06:12:21.000Z,20.30
2019-03-19T06:14:54.269Z,20.30
2019-03-19T06:17:28.250Z,20.30
2019-03-19T06:20:00.966Z,20.20
2019-03-19T06:22:33.651Z,20.20
2019-03-19T06:25:06.741Z,20.20
2019-03-19T06:27:39.889Z,20.10
2019-03-19T06:30:22.917Z,20.10
2019-03-19T06:32:55.745Z,20.00
2019-03-19T06:35:28.424Z,20.00
2019-03-19T06:38:02.712Z,20.00
2019-03-19T06:40:35.604Z,19.90
2019-03-19T06:43:08.597Z,19.90
2019-03-19T06:45:41.373Z,19.90
2019-03-19T06:48:15.554Z,19.80
2019-03-19T06:50:48.357Z,19.80
2019-03-19T06:53:21.356Z,19.80
2019-03-19T06:55:54.238Z,19.70
2019-03-19T06:58:26.925Z,19.70
2019-03-19T07:00:59.471Z,19.70
2019-03-19T07:03:32.392Z,19.70
2019-03-19T07:06:04.960Z,19.60
2019-03-19T07:08:38.485Z,19.60
2019-03-19T07:11:11.675Z,19.60
2019-03-19T07:13:44.635Z,19.60
2019-03-19T07:16:17.286Z,19.60
2019-03-19T07:18:50.146Z,19.50
2019-03-19T07:21:22.994Z,19.60
2019-03-19T07:23:55.773Z,19.60
2019-03-19T07:26:28.840Z,19.50
2019-03-19T07:29:01.610Z,19.50
2019-03-19T07:31:34.582Z,19.50
2019-03-19T07:34:07.376Z,19.50
2019-03-19T07:36:40.382Z,19.50
2019-03-19T07:39:13.075Z,19.50
2019-03-19T07:41:46.154Z,19.50
2019-03-19T07:44:19.037Z,19.50
2019-03-19T07:46:51.792Z,19.50
2019-03-19T07:49:24.697Z,19.50
2019-03-19T07:51:57.488Z,19.50
2019-03-19T07:54:30.369Z,19.40
2019-03-19T07:57:03.370Z,19.40
2019-03-19T07:59:36.261Z,19.40
2019-03-19T08:02:09.468Z,19.40
2019-03-19T08:04:43.570Z,19.40
2019-03-19T08:07:16.420Z,19.40
2019-03-19T08:09:49.706Z,19.30
2019-03-19T08:12:22.971Z,19.30
2019-03-19T08:14:55.782Z,19.30
2019-03-19T08:17:28.939Z,19.30
2019-03-19T08:20:01.659Z,19.30
2019-03-19T08:22:35.268Z,19.30
2019-03-19T08:25:09.600Z,19.40
2019-03-19T08:27:42.461Z,19.40
2019-03-19T08:30:25.249Z,19.40
2019-03-19T08:32:59.078Z,19.50
2019-03-19T08:35:32.103Z,19.50
2019-03-19T08:38:04.965Z,19.50
2019-03-19T08:40:38.066Z,19.50
2019-03-19T08:43:11.178Z,19.60
2019-03-19T08:45:44.384Z,19.60
2019-03-19T08:48:17.369Z,19.60
2019-03-19T08:50:51.049Z,19.60
2019-03-19T08:53:24.112Z,19.70
2019-03-19T08:55:58.041Z,19.70
2019-03-19T08:58:30.894Z,19.70
2019-03-19T09:01:03.488Z,19.70
2019-03-19T09:03:36.526Z,19.70
2019-03-19T09:06:10.886Z,19.60
2019-03-19T09:08:44.430Z,19.70
2019-03-19T09:11:17.321Z,19.60
2019-03-19T09:13:50.488Z,19.70
2019-03-19T09:16:24.505Z,19.70
2019-03-19T09:18:57.464Z,19.60
2019-03-19T09:21:30.230Z,19.60
2019-03-19T09:24:03.156Z,19.60
2019-03-19T09:26:36.023Z,19.60
2019-03-19T09:29:16.350Z,19.60
2019-03-19T09:31:42.997Z,19.60
2019-03-19T09:34:15.780Z,19.60
2019-03-19T09:36:57.013Z,19.60
2019-03-19T09:39:24.066Z,19.60
2019-03-19T09:41:57.116Z,19.60
2019-03-19T09:44:29.892Z,19.60
2019-03-19T09:47:02.769Z,19.60
2019-03-19T09:49:35.583Z,19.60
2019-03-19T09:52:08.244Z,19.60
2019-03-19T09:54:41.540Z,19.60
2019-03-19T09:57:14.441Z,19.60
2019-03-19T09:59:47.392Z,19.60
2019-03-19T10:02:20.493Z,19.50
2019-03-19T10:04:53.536Z,19.50
2019-03-19T10:07:26.277Z,19.50
2019-03-19T10:09:59.146Z,19.50
2019-03-19T10:12:32.124Z,19.50
2019-03-19T10:15:04.839Z,19.50
2019-03-19T10:17:38.139Z,19.50
2019-03-19T10:20:17.853Z,19.50
2019-03-19T10:22:50.444Z,19.50
2019-03-19T10:25:23.427Z,19.50
2019-03-19T10:27:56.405Z,19.50
2019-03-19T10:30:29.543Z,19.40
2019-03-19T10:33:02.339Z,19.40
2019-03-19T10:35:35.159Z,19.40
2019-03-19T10:38:08.340Z,19.40
2019-03-19T10:40:41.244Z,19.40
2019-03-19T10:43:14.484Z,19.40
2019-03-19T10:45:47.110Z,19.40
2019-03-19T10:48:19.911Z,19.30
2019-03-19T10:50:52.824Z,19.30
2019-03-19T10:53:25.725Z,19.30
2019-03-19T10:55:58.640Z,19.30
2019-03-19T10:58:31.580Z,19.30
2019-03-19T11:01:04.380Z,19.20
2019-03-19T11:03:37.034Z,19.20
2019-03-19T11:06:09.985Z,19.20
2019-03-19T11:08:42.752Z,19.20
2019-03-19T11:11:15.741Z,19.20
2019-03-19T11:13:48.517Z,19.20
2019-03-19T11:16:21.163Z,19.20
2019-03-19T11:18:54.230Z,19.20
2019-03-19T11:21:26.761Z,19.20
2019-03-19T11:23:59.719Z,19.20
2019-03-19T11:26:32.423Z,19.20
2019-03-19T11:29:05.279Z,19.10
2019-03-19T11:31:38.000Z,19.10
2019-03-19T11:34:11.229Z,19.10
2019-03-19T11:36:43.969Z,19.10
2019-03-19T11:39:16.866Z,19.10
2019-03-19T11:41:49.597Z,19.10
2019-03-19T11:44:23.509Z,19.10
2019-03-19T11:46:56.173Z,19.10
2019-03-19T11:49:29.070Z,19.10
2019-03-19T11:52:01.866Z,19.10
2019-03-19T11:54:34.840Z,19.10
2019-03-19T11:57:07.634Z,19.10
2019-03-19T11:59:40.614Z,19.20
2019-03-19T12:02:14.028Z,19.20
2019-03-19T12:04:46.857Z,19.20
2019-03-19T12:07:20.012Z,19.20
2019-03-19T12:09:52.964Z,19.20
2019-03-19T12:12:25.790Z,19.20
2019-03-19T12:14:58.961Z,19.20
2019-03-19T12:17:31.801Z,19.30
2019-03-19T12:20:04.563Z,19.30
2019-03-19T12:22:37.338Z,19.20
2019-03-19T12:25:11.646Z,19.20
2019-03-19T12:27:44.162Z,19.20
2019-03-19T12:30:26.547Z,19.20
2019-03-19T12:32:59.354Z,19.20
2019-03-19T12:35:32.039Z,19.10
2019-03-19T12:38:04.645Z,19.10
2019-03-19T12:40:38.535Z,19.10
2019-03-19T12:43:11.511Z,19.10
2019-03-19T12:45:45.616Z,19.10
2019-03-19T12:48:18.353Z,19.10
2019-03-19T12:50:51.371Z,19.00
2019-03-19T12:53:24.017Z,19.00
2019-03-19T12:55:57.036Z,19.00
2019-03-19T12:58:29.809Z,19.00
2019-03-19T13:01:03.257Z,19.00
2019-03-19T13:03:35.953Z,19.00
2019-03-19T13:06:09.206Z,19.00
2019-03-19T13:08:41.927Z,18.90
2019-03-19T13:11:14.917Z,19.00
2019-03-19T13:13:47.685Z,18.90
2019-03-19T13:16:20.779Z,18.90
2019-03-19T13:18:53.447Z,19.00
2019-03-19T13:21:26.303Z,19.00
2019-03-19T13:23:59.231Z,18.90
2019-03-19T13:26:32.082Z,19.00
2019-03-19T13:29:04.792Z,19.00
2019-03-19T13:31:40.997Z,19.00
2019-03-19T13:34:14.093Z,19.00
2019-03-19T13:36:47.133Z,19.00
2019-03-19T13:39:19.611Z,18.90
2019-03-19T13:41:52.662Z,18.90
2019-03-19T13:44:25.388Z,18.90
2019-03-19T13:46:58.347Z,18.90
2019-03-19T13:49:31.342Z,18.90
2019-03-19T13:52:04.143Z,19.00
2019-03-19T13:54:37.059Z,19.00
2019-03-19T13:57:09.712Z,19.00
2019-03-19T13:59:42.553Z,19.00
2019-03-19T14:02:15.270Z,19.10
2019-03-19T14:04:47.970Z,19.10
2019-03-19T14:07:20.828Z,19.10
2019-03-19T14:09:53.626Z,19.10
2019-03-19T14:12:29.249Z,19.10
2019-03-19T14:15:02.165Z,19.10
2019-03-19T14:17:35.458Z,19.10
2019-03-19T14:20:10.870Z,19.10
2019-03-19T14:22:45.275Z,19.10
2019-03-19T14:25:17.812Z,19.10
2019-03-19T14:27:50.442Z,19.10
2019-03-19T14:30:26.926Z,19.10
2019-03-19T14:32:59.682Z,19.20
2019-03-19T14:35:37.290Z,19.20
2019-03-19T14:38:06.896Z,19.20
2019-03-19T14:40:39.887Z,19.20
2019-03-19T14:43:12.665Z,19.20
2019-03-19T14:45:45.952Z,19.20
2019-03-19T14:48:18.862Z,19.20
2019-03-19T14:50:51.632Z,19.20
2019-03-19T14:53:24.467Z,19.20
2019-03-19T14:55:57.057Z,19.20
2019-03-19T14:58:30.235Z,19.30
2019-03-19T15:01:02.952Z,19.30
2019-03-19T15:03:35.488Z,19.30
2019-03-19T15:06:08.290Z,19.30
2019-03-19T15:08:41.096Z,19.30
2019-03-19T15:11:13.875Z,19.30
2019-03-19T15:13:47.487Z,19.30
2019-03-19T15:16:20.271Z,19.30
2019-03-19T15:18:53.181Z,19.30
2019-03-19T15:21:25.592Z,19.30
2019-03-19T15:23:58.488Z,19.30
2019-03-19T15:26:31.097Z,19.30
2019-03-19T15:29:03.998Z,19.40
2019-03-19T15:31:36.657Z,19.40
2019-03-19T15:34:09.320Z,19.30
2019-03-19T15:36:42.978Z,19.40
2019-03-19T15:39:15.709Z,19.40
2019-03-19T15:41:48.254Z,19.40
2019-03-19T15:44:20.849Z,19.30
2019-03-19T15:46:53.764Z,19.40
2019-03-19T15:49:37.618Z,19.30
2019-03-19T15:52:00.853Z,19.40
2019-03-19T15:54:33.851Z,19.40
2019-03-19T15:57:06.610Z,19.40
2019-03-19T15:59:39.402Z,19.30
2019-03-19T16:02:12.188Z,19.30
2019-03-19T16:04:44.951Z,19.40
2019-03-19T16:07:17.945Z,19.40
2019-03-19T16:09:50.746Z,19.40
2019-03-19T16:12:23.695Z,19.40
2019-03-19T16:14:56.506Z,19.40
2019-03-19T16:17:29.427Z,19.40
2019-03-19T16:20:02.052Z,19.40
2019-03-19T16:22:35.032Z,19.40
2019-03-19T16:25:08.523Z,19.40
2019-03-19T16:27:41.411Z,19.40
2019-03-19T16:30:22.225Z,19.40
2019-03-19T16:32:54.983Z,19.40
2019-03-19T16:35:27.824Z,19.40
2019-03-19T16:38:01.820Z,19.40
2019-03-19T16:40:34.556Z,19.40
2019-03-19T16:43:07.529Z,19.40
2019-03-19T16:45:40.321Z,19.40
2019-03-19T16:48:13.258Z,19.40
2019-03-19T16:50:46.107Z,19.40
2019-03-19T16:53:19.054Z,19.40
2019-03-19T16:55:51.399Z,19.40
2019-03-19T16:58:24.330Z,19.30
2019-03-19T17:00:56.999Z,19.30
2019-03-19T17:03:29.563Z,19.30
2019-03-19T17:06:02.607Z,19.30
2019-03-19T17:08:35.150Z,19.30
2019-03-19T17:11:07.999Z,19.30
2019-03-19T17:13:40.707Z,19.30
2019-03-19T17:16:13.737Z,19.30
2019-03-19T17:18:46.514Z,19.30
2019-03-19T17:21:19.438Z,19.30
2019-03-19T17:23:51.962Z,19.30
2019-03-19T17:26:24.812Z,19.30
2019-03-19T17:28:57.518Z,19.30
2019-03-19T17:31:30.301Z,19.30
2019-03-19T17:34:02.870Z,19.30
2019-03-19T17:36:35.842Z,19.20
2019-03-19T17:39:09.794Z,19.20
2019-03-19T17:41:42.802Z,19.20
2019-03-19T17:44:15.425Z,19.20
2019-03-19T17:46:48.126Z,19.20
2019-03-19T17:49:38.640Z,19.20
2019-03-19T17:52:11.418Z,19.20
2019-03-19T17:54:44.102Z,19.20
2019-03-19T17:57:17.083Z,19.10
2019-03-19T17:59:49.701Z,19.10
2019-03-19T18:02:24.187Z,19.10
2019-03-19T18:04:56.444Z,19.10
2019-03-19T18:07:29.356Z,19.10
2019-03-19T18:10:02.203Z,19.10
2019-03-19T18:12:34.858Z,19.10
2019-03-19T18:15:09.222Z,19.10
2019-03-19T18:17:42.204Z,19.20
2019-03-19T18:20:19.677Z,19.20
2019-03-19T18:22:52.450Z,19.20
2019-03-19T18:25:25.362Z,19.10
2019-03-19T18:27:58.479Z,19.10
2019-03-19T18:30:31.963Z,19.10
2019-03-19T18:33:04.613Z,19.10
2019-03-19T18:35:37.585Z,19.10
2019-03-19T18:38:10.368Z,19.10
2019-03-19T18:40:43.376Z,19.10
2019-03-19T18:43:16.007Z,19.10
2019-03-19T18:45:48.745Z,19.20
2019-03-19T18:48:21.694Z,19.20
2019-03-19T18:50:54.693Z,19.20
2019-03-19T18:53:27.670Z,19.20
2019-03-19T18:56:00.478Z,19.20
2019-03-19T18:58:34.200Z,19.20
2019-03-19T19:01:07.053Z,19.20
2019-03-19T19:03:40.413Z,19.20
2019-03-19T19:06:13.249Z,19.20
2019-03-19T19:08:46.195Z,19.30
2019-03-19T19:11:19.020Z,19.30
2019-03-19T19:13:52.058Z,19.30
2019-03-19T19:16:24.795Z,19.30
2019-03-19T19:18:57.777Z,19.30
2019-03-19T19:21:30.565Z,19.40
2019-03-19T19:24:03.555Z,19.30
2019-03-19T19:26:36.178Z,19.30
2019-03-19T19:29:09.277Z,19.30
2019-03-19T19:31:42.075Z,19.30
2019-03-19T19:34:14.984Z,19.30
2019-03-19T19:36:47.880Z,19.40
2019-03-19T19:39:20.642Z,19.40
2019-03-19T19:41:53.656Z,19.40
2019-03-19T19:44:26.396Z,19.40
2019-03-19T19:46:59.296Z,19.40
2019-03-19T19:49:31.970Z,19.40
2019-03-19T19:52:05.138Z,19.40
2019-03-19T19:54:37.959Z,19.40
2019-03-19T19:57:11.038Z,19.40
2019-03-19T19:59:43.701Z,19.40
2019-03-19T20:02:16.667Z,19.30
2019-03-19T20:04:49.465Z,19.30
2019-03-19T20:07:22.514Z,19.30
2019-03-19T20:09:55.090Z,19.30
2019-03-19T20:12:28.199Z,19.30
2019-03-19T20:15:00.878Z,19.30
2019-03-19T20:17:33.584Z,19.30
2019-03-19T20:20:07.387Z,19.30
2019-03-19T20:22:40.253Z,19.30
2019-03-19T20:25:12.934Z,19.40
2019-03-19T20:27:45.964Z,19.40
2019-03-19T20:30:20.496Z,19.50
2019-03-19T20:32:53.646Z,19.50
2019-03-19T20:35:26.324Z,19.60
2019-03-19T20:37:58.973Z,19.60
2019-03-19T20:40:32.183Z,19.70
2019-03-19T20:43:04.733Z,19.70
2019-03-19T20:45:37.319Z,19.80
2019-03-19T20:48:10.244Z,19.80
2019-03-19T20:50:43.423Z,19.80
2019-03-19T20:53:16.473Z,19.90
2019-03-19T20:55:52.052Z,19.90
2019-03-19T20:58:25.198Z,19.90
2019-03-19T21:00:57.900Z,20.00
2019-03-19T21:03:35.926Z,20.00
2019-03-19T21:06:04.713Z,20.10
2019-03-19T21:08:37.559Z,20.20
2019-03-19T21:11:10.417Z,20.20
2019-03-19T21:13:42.945Z,20.30
2019-03-19T21:16:16.027Z,20.40
2019-03-19T21:18:48.755Z,20.40
2019-03-19T21:21:21.799Z,20.60
2019-03-19T21:23:54.401Z,20.70
2019-03-19T21:26:28.216Z,20.80
2019-03-19T21:29:01.117Z,20.80
2019-03-19T21:31:33.996Z,20.90
2019-03-19T21:34:06.882Z,20.90
2019-03-19T21:36:40.985Z,21.00
2019-03-19T21:39:13.887Z,21.00
2019-03-19T21:41:47.313Z,21.00
2019-03-19T21:44:20.826Z,21.10
2019-03-19T21:46:53.697Z,21.10
2019-03-19T21:49:26.511Z,21.20
2019-03-19T21:51:59.403Z,21.20
2019-03-19T21:54:32.331Z,21.30
2019-03-19T21:57:05.202Z,21.40
2019-03-19T21:59:37.859Z,21.50
2019-03-19T22:02:11.826Z,21.50
2019-03-19T22:04:44.570Z,21.50
2019-03-19T22:07:17.459Z,21.60
2019-03-19T22:09:50.245Z,21.60
2019-03-19T22:12:22.881Z,21.60
2019-03-19T22:14:55.948Z,21.70
2019-03-19T22:17:28.676Z,21.60
2019-03-19T22:20:01.727Z,21.60
2019-03-19T22:22:34.197Z,21.70
2019-03-19T22:25:08.029Z,21.70
2019-03-19T22:27:40.697Z,21.70
2019-03-19T22:30:18.324Z,21.70
2019-03-19T22:32:50.984Z,21.70
2019-03-19T22:35:23.884Z,21.70
2019-03-19T22:37:57.053Z,21.60
2019-03-19T22:40:29.911Z,21.60
2019-03-19T22:43:02.634Z,21.70
2019-03-19T22:45:35.279Z,21.70
2019-03-19T22:48:09.175Z,21.70
2019-03-19T22:50:41.446Z,21.80
2019-03-19T22:53:14.592Z,21.80
2019-03-19T22:55:47.570Z,21.80
2019-03-19T22:58:20.543Z,21.80
2019-03-19T23:00:53.730Z,21.80
2019-03-19T23:03:26.703Z,21.70
2019-03-19T23:05:59.717Z,21.70
2019-03-19T23:08:33.715Z,21.70
2019-03-19T23:11:06.590Z,21.70
2019-03-19T23:13:39.554Z,21.70
2019-03-19T23:16:12.272Z,21.70
2019-03-19T23:18:45.417Z,21.70
2019-03-19T23:21:18.046Z,21.70
2019-03-19T23:23:51.589Z,21.70
2019-03-19T23:26:24.332Z,21.60
2019-03-19T23:28:56.977Z,21.70
2019-03-19T23:31:30.184Z,21.70
2019-03-19T23:34:03.092Z,21.70
2019-03-19T23:36:35.948Z,21.80
2019-03-19T23:39:09.765Z,21.80
2019-03-19T23:41:42.603Z,21.90
2019-03-19T23:44:15.230Z,21.90
2019-03-19T23:46:48.143Z,22.00
2019-03-19T23:49:22.910Z,22.00
2019-03-19T23:51:55.927Z,22.10
2019-03-19T23:54:28.874Z,22.10
2019-03-19T23:57:01.899Z,22.20
2019-03-19T23:59:34.668Z,22.20
